sensor_id;sensor_type;location;lat;lon;timestamp;pressure;altitude;pressure_sealevel;temperature;humidity
70930;BME280;58588;48.102;19.682;2024-03-07T00:02:45;99401.94;;;9.27;79.21
70930;BME280;58588;48.102;19.682;2024-03-07T00:05:48;99400.81;;;9.45;79.97
70930;BME280;58588;48.102;19.682;2024-03-07T00:08:50;99401.75;;;9.52;79.65
70930;BME280;58588;48.102;19.682;2024-03-07T00:11:52;99404.00;;;9.48;79.44
70930;BME280;58588;48.102;19.682;2024-03-07T00:14:55;99398.13;;;9.45;80.34
70930;BME280;58588;48.102;19.682;2024-03-07T00:17:57;99407.25;;;9.58;79.29
70930;BME280;58588;48.102;19.682;2024-03-07T00:21:01;99402.25;;;9.70;79.22
70930;BME280;58588;48.102;19.682;2024-03-07T00:24:04;99401.22;;;9.56;79.86
70930;BME280;58588;48.102;19.682;2024-03-07T00:27:06;99410.13;;;9.57;80.87
70930;BME280;58588;48.102;19.682;2024-03-07T00:30:10;99395.94;;;9.63;80.01
70930;BME280;58588;48.102;19.682;2024-03-07T00:33:13;99394.50;;;9.52;79.57
70930;BME280;58588;48.102;19.682;2024-03-07T00:36:16;99401.50;;;9.61;80.44
70930;BME280;58588;48.102;19.682;2024-03-07T00:39:18;99403.94;;;9.71;81.03
70930;BME280;58588;48.102;19.682;2024-03-07T00:42:20;99399.97;;;9.44;80.21
70930;BME280;58588;48.102;19.682;2024-03-07T00:45:24;99396.44;;;9.44;79.94
70930;BME280;58588;48.102;19.682;2024-03-07T00:48:26;99401.00;;;9.43;80.01
70930;BME280;58588;48.102;19.682;2024-03-07T00:51:30;99395.44;;;9.45;78.17
70930;BME280;58588;48.102;19.682;2024-03-07T00:54:32;99394.06;;;9.49;79.42
70930;BME280;58588;48.102;19.682;2024-03-07T00:57:34;99394.06;;;9.49;79.12
70930;BME280;58588;48.102;19.682;2024-03-07T01:00:37;99397.19;;;9.52;78.71
70930;BME280;58588;48.102;19.682;2024-03-07T01:03:43;99393.94;;;9.42;78.28
70930;BME280;58588;48.102;19.682;2024-03-07T01:06:45;99388.72;;;9.41;79.47
70930;BME280;58588;48.102;19.682;2024-03-07T01:09:47;99400.28;;;9.49;79.78
70930;BME280;58588;48.102;19.682;2024-03-07T01:12:49;99399.25;;;9.27;80.41
70930;BME280;58588;48.102;19.682;2024-03-07T01:15:55;99394.91;;;9.26;79.93
70930;BME280;58588;48.102;19.682;2024-03-07T01:18:57;99387.84;;;9.25;78.05
70930;BME280;58588;48.102;19.682;2024-03-07T01:21:59;99385.16;;;9.25;78.71
70930;BME280;58588;48.102;19.682;2024-03-07T01:25:01;99392.09;;;9.20;79.51
70930;BME280;58588;48.102;19.682;2024-03-07T01:28:04;99391.03;;;9.06;78.05
70930;BME280;58588;48.102;19.682;2024-03-07T01:31:08;99397.38;;;9.13;77.89
70930;BME280;58588;48.102;19.682;2024-03-07T01:34:11;99395.19;;;8.85;79.76
70930;BME280;58588;48.102;19.682;2024-03-07T01:37:13;99388.06;;;8.93;79.58
70930;BME280;58588;48.102;19.682;2024-03-07T01:40:15;99391.00;;;8.83;79.03
70930;BME280;58588;48.102;19.682;2024-03-07T01:43:16;99396.91;;;8.78;79.74
70930;BME280;58588;48.102;19.682;2024-03-07T01:46:20;99402.34;;;8.70;79.11
70930;BME280;58588;48.102;19.682;2024-03-07T01:49:22;99392.53;;;8.77;76.42
70930;BME280;58588;48.102;19.682;2024-03-07T01:52:24;99390.59;;;8.94;76.34
70930;BME280;58588;48.102;19.682;2024-03-07T01:55:27;99390.16;;;8.82;77.73
70930;BME280;58588;48.102;19.682;2024-03-07T01:58:29;99394.53;;;8.83;77.19
70930;BME280;58588;48.102;19.682;2024-03-07T02:01:33;99398.31;;;8.66;79.13
70930;BME280;58588;48.102;19.682;2024-03-07T02:04:37;99401.25;;;8.79;77.65
70930;BME280;58588;48.102;19.682;2024-03-07T02:07:38;99405.16;;;8.77;79.57
70930;BME280;58588;48.102;19.682;2024-03-07T02:10:41;99389.41;;;8.66;79.63
70930;BME280;58588;48.102;19.682;2024-03-07T02:13:42;99393.78;;;8.67;79.23
70930;BME280;58588;48.102;19.682;2024-03-07T02:16:46;99390.75;;;8.70;80.53
70930;BME280;58588;48.102;19.682;2024-03-07T02:19:48;99393.47;;;8.62;79.91
70930;BME280;58588;48.102;19.682;2024-03-07T02:22:52;99399.19;;;8.58;81.15
70930;BME280;58588;48.102;19.682;2024-03-07T02:25:54;99401.53;;;8.62;80.14
70930;BME280;58588;48.102;19.682;2024-03-07T02:28:56;99394.41;;;8.77;79.25
70930;BME280;58588;48.102;19.682;2024-03-07T02:31:57;99392.84;;;8.82;78.75
70930;BME280;58588;48.102;19.682;2024-03-07T02:34:59;99392.56;;;8.69;80.16
70930;BME280;58588;48.102;19.682;2024-03-07T02:38:03;99395.25;;;8.69;80.97
70930;BME280;58588;48.102;19.682;2024-03-07T02:41:06;99396.97;;;8.70;79.11
70930;BME280;58588;48.102;19.682;2024-03-07T02:44:07;99383.91;;;8.59;80.61
70930;BME280;58588;48.102;19.682;2024-03-07T02:47:10;99383.78;;;8.52;80.18
70930;BME280;58588;48.102;19.682;2024-03-07T02:50:12;99394.59;;;8.67;80.25
70930;BME280;58588;48.102;19.682;2024-03-07T02:53:16;99397.94;;;8.69;80.72
70930;BME280;58588;48.102;19.682;2024-03-07T02:56:19;99401.78;;;8.75;80.65
70930;BME280;58588;48.102;19.682;2024-03-07T02:59:21;99408.16;;;8.82;80.26
70930;BME280;58588;48.102;19.682;2024-03-07T03:02:23;99401.06;;;8.81;79.88
70930;BME280;58588;48.102;19.682;2024-03-07T03:05:25;99405.03;;;8.70;80.52
70930;BME280;58588;48.102;19.682;2024-03-07T03:08:28;99402.34;;;8.70;79.54
70930;BME280;58588;48.102;19.682;2024-03-07T03:11:30;99407.53;;;8.72;77.29
70930;BME280;58588;48.102;19.682;2024-03-07T03:14:31;99400.81;;;8.68;78.86
70930;BME280;58588;48.102;19.682;2024-03-07T03:17:33;99409.38;;;8.71;80.03
70930;BME280;58588;48.102;19.682;2024-03-07T03:20:35;99400.16;;;8.66;78.75
70930;BME280;58588;48.102;19.682;2024-03-07T03:23:40;99406.00;;;8.69;78.77
70930;BME280;58588;48.102;19.682;2024-03-07T03:26:42;99404.06;;;8.55;78.71
70930;BME280;58588;48.102;19.682;2024-03-07T03:29:44;99405.41;;;8.59;78.15
70930;BME280;58588;48.102;19.682;2024-03-07T03:32:46;99397.91;;;8.46;79.41
70930;BME280;58588;48.102;19.682;2024-03-07T03:35:49;99405.97;;;8.46;78.32
70930;BME280;58588;48.102;19.682;2024-03-07T03:38:52;99414.88;;;8.47;78.48
70930;BME280;58588;48.102;19.682;2024-03-07T03:41:54;99407.84;;;8.38;77.65
70930;BME280;58588;48.102;19.682;2024-03-07T03:44:56;99412.06;;;8.24;78.68
70930;BME280;58588;48.102;19.682;2024-03-07T03:47:58;99420.09;;;8.32;78.12
70930;BME280;58588;48.102;19.682;2024-03-07T03:51:00;99421.97;;;8.15;78.71
70930;BME280;58588;48.102;19.682;2024-03-07T03:54:03;99408.94;;;8.04;78.78
70930;BME280;58588;48.102;19.682;2024-03-07T03:57:06;99411.13;;;8.00;79.92
70930;BME280;58588;48.102;19.682;2024-03-07T04:00:09;99406.94;;;7.90;79.13
70930;BME280;58588;48.102;19.682;2024-03-07T04:03:14;99415.50;;;7.85;79.14
70930;BME280;58588;48.102;19.682;2024-03-07T04:06:16;99409.97;;;7.87;79.57
70930;BME280;58588;48.102;19.682;2024-03-07T04:09:19;99409.66;;;7.82;80.07
70930;BME280;58588;48.102;19.682;2024-03-07T04:12:21;99403.09;;;7.92;79.59
70930;BME280;58588;48.102;19.682;2024-03-07T04:15:23;99401.44;;;7.75;80.57
70930;BME280;58588;48.102;19.682;2024-03-07T04:18:27;99404.94;;;7.92;80.44
70930;BME280;58588;48.102;19.682;2024-03-07T04:21:29;99410.09;;;8.01;78.92
70930;BME280;58588;48.102;19.682;2024-03-07T04:24:32;99405.59;;;7.94;80.30
70930;BME280;58588;48.102;19.682;2024-03-07T04:27:34;99413.97;;;7.99;78.40
70930;BME280;58588;48.102;19.682;2024-03-07T04:30:37;99413.63;;;8.10;79.83
70930;BME280;58588;48.102;19.682;2024-03-07T04:33:39;99415.69;;;7.84;79.58
70930;BME280;58588;48.102;19.682;2024-03-07T04:36:41;99417.69;;;7.73;80.07
70930;BME280;58588;48.102;19.682;2024-03-07T04:39:45;99420.19;;;7.99;79.48
70930;BME280;58588;48.102;19.682;2024-03-07T04:42:48;99421.66;;;8.18;75.19
70930;BME280;58588;48.102;19.682;2024-03-07T04:45:50;99423.53;;;8.10;76.58
70930;BME280;58588;48.102;19.682;2024-03-07T04:48:52;99418.50;;;8.07;75.88
70930;BME280;58588;48.102;19.682;2024-03-07T04:51:55;99425.22;;;7.94;74.13
70930;BME280;58588;48.102;19.682;2024-03-07T04:54:59;99433.06;;;8.12;74.47
70930;BME280;58588;48.102;19.682;2024-03-07T04:58:01;99431.59;;;8.01;76.37
70930;BME280;58588;48.102;19.682;2024-03-07T05:01:04;99434.56;;;8.15;76.44
70930;BME280;58588;48.102;19.682;2024-03-07T05:04:06;99443.66;;;8.05;74.27
70930;BME280;58588;48.102;19.682;2024-03-07T05:07:08;99440.44;;;8.18;73.91
70930;BME280;58588;48.102;19.682;2024-03-07T05:10:12;99437.72;;;8.35;73.73
70930;BME280;58588;48.102;19.682;2024-03-07T05:13:14;99431.59;;;7.93;73.73
70930;BME280;58588;48.102;19.682;2024-03-07T05:16:17;99439.50;;;7.78;72.13
70930;BME280;58588;48.102;19.682;2024-03-07T05:19:20;99447.84;;;8.08;72.06
70930;BME280;58588;48.102;19.682;2024-03-07T05:22:24;99456.56;;;8.02;71.97
70930;BME280;58588;48.102;19.682;2024-03-07T05:25:29;99454.53;;;8.28;73.65
70930;BME280;58588;48.102;19.682;2024-03-07T05:28:32;99457.75;;;8.08;71.88
70930;BME280;58588;48.102;19.682;2024-03-07T05:31:35;99442.75;;;8.29;71.53
70930;BME280;58588;48.102;19.682;2024-03-07T05:34:37;99460.34;;;8.48;72.53
70930;BME280;58588;48.102;19.682;2024-03-07T05:37:41;99463.22;;;8.30;72.99
70930;BME280;58588;48.102;19.682;2024-03-07T05:40:48;99462.56;;;8.28;72.45
70930;BME280;58588;48.102;19.682;2024-03-07T05:43:51;99458.41;;;8.18;72.49
70930;BME280;58588;48.102;19.682;2024-03-07T05:46:53;99467.44;;;8.41;71.91
70930;BME280;58588;48.102;19.682;2024-03-07T05:49:55;99463.41;;;8.21;71.15
70930;BME280;58588;48.102;19.682;2024-03-07T05:53:00;99456.19;;;8.38;72.11
70930;BME280;58588;48.102;19.682;2024-03-07T06:00:00;99464.84;;;8.56;71.28
70930;BME280;58588;48.102;19.682;2024-03-07T06:03:10;99462.75;;;8.19;71.65
70930;BME280;58588;48.102;19.682;2024-03-07T06:06:14;99469.81;;;8.36;71.85
70930;BME280;58588;48.102;19.682;2024-03-07T06:09:16;99473.16;;;8.14;75.00
70930;BME280;58588;48.102;19.682;2024-03-07T06:12:21;99469.13;;;8.26;72.79
70930;BME280;58588;48.102;19.682;2024-03-07T06:15:25;99470.78;;;8.43;71.46
70930;BME280;58588;48.102;19.682;2024-03-07T06:18:28;99477.81;;;8.44;71.55
70930;BME280;58588;48.102;19.682;2024-03-07T06:21:31;99480.13;;;8.55;72.00
70930;BME280;58588;48.102;19.682;2024-03-07T06:24:34;99469.56;;;8.54;72.46
70930;BME280;58588;48.102;19.682;2024-03-07T06:27:36;99483.03;;;8.38;72.23
70930;BME280;58588;48.102;19.682;2024-03-07T06:30:49;99472.31;;;8.38;71.94
70930;BME280;58588;48.102;19.682;2024-03-07T06:33:51;99482.19;;;8.45;72.67
70930;BME280;58588;48.102;19.682;2024-03-07T06:36:53;99478.50;;;8.46;72.17
70930;BME280;58588;48.102;19.682;2024-03-07T06:39:56;99486.84;;;8.60;73.33
70930;BME280;58588;48.102;19.682;2024-03-07T06:42:58;99474.53;;;8.01;72.04
70930;BME280;58588;48.102;19.682;2024-03-07T06:46:02;99480.50;;;8.52;73.43
70930;BME280;58588;48.102;19.682;2024-03-07T06:49:05;99483.38;;;8.35;71.88
70930;BME280;58588;48.102;19.682;2024-03-07T06:52:10;99476.50;;;8.40;71.20
70930;BME280;58588;48.102;19.682;2024-03-07T06:55:13;99465.59;;;8.25;71.96
70930;BME280;58588;48.102;19.682;2024-03-07T06:58:17;99460.03;;;8.43;71.97
70930;BME280;58588;48.102;19.682;2024-03-07T07:01:20;99466.69;;;8.64;72.71
70930;BME280;58588;48.102;19.682;2024-03-07T07:04:23;99484.13;;;9.07;72.85
70930;BME280;58588;48.102;19.682;2024-03-07T07:07:27;99485.28;;;8.73;70.82
70930;BME280;58588;48.102;19.682;2024-03-07T07:10:30;99486.56;;;8.94;71.57
70930;BME280;58588;48.102;19.682;2024-03-07T07:13:32;99495.44;;;8.55;70.78
70930;BME280;58588;48.102;19.682;2024-03-07T07:16:36;99493.25;;;8.50;71.84
70930;BME280;58588;48.102;19.682;2024-03-07T07:19:41;99497.47;;;8.92;71.84
70930;BME280;58588;48.102;19.682;2024-03-07T07:22:45;99501.34;;;8.90;71.55
70930;BME280;58588;48.102;19.682;2024-03-07T07:25:47;99499.13;;;8.93;71.81
70930;BME280;58588;48.102;19.682;2024-03-07T07:28:49;99509.28;;;8.75;71.89
70930;BME280;58588;48.102;19.682;2024-03-07T07:31:56;99515.50;;;8.75;71.12
70930;BME280;58588;48.102;19.682;2024-03-07T07:34:58;99511.72;;;8.53;71.78
70930;BME280;58588;48.102;19.682;2024-03-07T07:38:00;99512.16;;;8.73;71.59
70930;BME280;58588;48.102;19.682;2024-03-07T07:41:02;99514.16;;;8.79;70.69
70930;BME280;58588;48.102;19.682;2024-03-07T07:44:04;99521.88;;;8.82;71.37
70930;BME280;58588;48.102;19.682;2024-03-07T07:47:08;99518.66;;;8.87;71.35
70930;BME280;58588;48.102;19.682;2024-03-07T07:50:12;99533.88;;;9.03;71.66
70930;BME280;58588;48.102;19.682;2024-03-07T07:53:14;99516.72;;;9.12;72.90
70930;BME280;58588;48.102;19.682;2024-03-07T07:56:16;99520.69;;;9.16;69.79
70930;BME280;58588;48.102;19.682;2024-03-07T07:59:18;99526.94;;;9.48;70.35
70930;BME280;58588;48.102;19.682;2024-03-07T08:02:21;99530.22;;;9.58;70.90
70930;BME280;58588;48.102;19.682;2024-03-07T08:05:24;99525.44;;;9.68;70.72
70930;BME280;58588;48.102;19.682;2024-03-07T08:08:27;99535.34;;;9.45;70.59
70930;BME280;58588;48.102;19.682;2024-03-07T08:11:30;99543.03;;;9.25;70.15
70930;BME280;58588;48.102;19.682;2024-03-07T08:14:31;99542.41;;;9.46;69.23
70930;BME280;58588;48.102;19.682;2024-03-07T08:17:37;99538.44;;;9.33;71.69
70930;BME280;58588;48.102;19.682;2024-03-07T08:20:39;99548.41;;;9.56;70.49
70930;BME280;58588;48.102;19.682;2024-03-07T08:23:42;99541.22;;;9.71;71.96
70930;BME280;58588;48.102;19.682;2024-03-07T08:26:44;99543.84;;;9.56;71.52
70930;BME280;58588;48.102;19.682;2024-03-07T08:29:48;99537.63;;;9.56;71.10
70930;BME280;58588;48.102;19.682;2024-03-07T08:32:53;99549.13;;;9.73;70.62
70930;BME280;58588;48.102;19.682;2024-03-07T08:35:55;99548.50;;;9.62;69.68
70930;BME280;58588;48.102;19.682;2024-03-07T08:38:57;99548.88;;;10.05;68.88
70930;BME280;58588;48.102;19.682;2024-03-07T08:41:59;99555.09;;;10.06;68.35
70930;BME280;58588;48.102;19.682;2024-03-07T08:45:01;99554.13;;;9.76;69.81
70930;BME280;58588;48.102;19.682;2024-03-07T08:48:07;99558.50;;;9.54;70.24
70930;BME280;58588;48.102;19.682;2024-03-07T08:51:09;99565.94;;;9.75;69.20
70930;BME280;58588;48.102;19.682;2024-03-07T08:54:11;99558.25;;;9.63;70.71
70930;BME280;58588;48.102;19.682;2024-03-07T08:57:13;99565.34;;;9.33;70.28
70930;BME280;58588;48.102;19.682;2024-03-07T09:00:18;99558.22;;;9.41;69.53
70930;BME280;58588;48.102;19.682;2024-03-07T09:03:25;99562.75;;;9.48;69.02
70930;BME280;58588;48.102;19.682;2024-03-07T09:06:28;99565.06;;;9.51;70.62
70930;BME280;58588;48.102;19.682;2024-03-07T09:09:30;99568.84;;;9.42;70.19
70930;BME280;58588;48.102;19.682;2024-03-07T09:12:32;99575.31;;;9.17;70.52
70930;BME280;58588;48.102;19.682;2024-03-07T09:15:35;99579.22;;;9.14;71.49
70930;BME280;58588;48.102;19.682;2024-03-07T09:18:39;99571.06;;;9.61;70.29
70930;BME280;58588;48.102;19.682;2024-03-07T09:21:41;99584.41;;;9.55;70.95
70930;BME280;58588;48.102;19.682;2024-03-07T09:24:43;99578.19;;;9.54;71.27
70930;BME280;58588;48.102;19.682;2024-03-07T09:27:45;99567.44;;;9.46;69.05
70930;BME280;58588;48.102;19.682;2024-03-07T09:30:47;99590.63;;;9.24;71.29
70930;BME280;58588;48.102;19.682;2024-03-07T09:33:50;99582.88;;;9.52;69.92
70930;BME280;58588;48.102;19.682;2024-03-07T09:36:54;99588.50;;;9.43;70.72
70930;BME280;58588;48.102;19.682;2024-03-07T09:39:56;99589.09;;;9.53;70.61
70930;BME280;58588;48.102;19.682;2024-03-07T09:42:59;99599.88;;;9.84;69.41
70930;BME280;58588;48.102;19.682;2024-03-07T09:46:03;99591.59;;;9.85;69.33
70930;BME280;58588;48.102;19.682;2024-03-07T09:49:10;99595.56;;;9.98;69.49
70930;BME280;58588;48.102;19.682;2024-03-07T09:52:14;99592.84;;;10.21;68.84
70930;BME280;58588;48.102;19.682;2024-03-07T09:55:17;99592.97;;;10.04;70.94
70930;BME280;58588;48.102;19.682;2024-03-07T09:58:20;99591.19;;;10.19;68.67
70930;BME280;58588;48.102;19.682;2024-03-07T10:01:25;99596.00;;;10.32;68.32
70930;BME280;58588;48.102;19.682;2024-03-07T10:04:30;99608.16;;;10.28;70.03
70930;BME280;58588;48.102;19.682;2024-03-07T10:07:33;99600.75;;;10.22;69.93
70930;BME280;58588;48.102;19.682;2024-03-07T10:10:37;99609.06;;;10.12;72.08
70930;BME280;58588;48.102;19.682;2024-03-07T10:13:39;99607.03;;;9.91;72.29
70930;BME280;58588;48.102;19.682;2024-03-07T10:16:41;99603.81;;;10.42;72.26
70930;BME280;58588;48.102;19.682;2024-03-07T10:19:46;99602.72;;;10.05;71.43
70930;BME280;58588;48.102;19.682;2024-03-07T10:22:48;99613.94;;;10.17;71.43
70930;BME280;58588;48.102;19.682;2024-03-07T10:25:51;99612.88;;;10.26;70.36
70930;BME280;58588;48.102;19.682;2024-03-07T10:28:55;99619.72;;;10.52;69.77
70930;BME280;58588;48.102;19.682;2024-03-07T10:31:57;99611.19;;;10.25;70.96
70930;BME280;58588;48.102;19.682;2024-03-07T10:35:00;99614.94;;;10.77;70.82
70930;BME280;58588;48.102;19.682;2024-03-07T10:38:03;99610.91;;;10.58;70.72
70930;BME280;58588;48.102;19.682;2024-03-07T10:41:08;99618.19;;;10.72;70.43
70930;BME280;58588;48.102;19.682;2024-03-07T10:44:18;99618.28;;;10.64;69.71
70930;BME280;58588;48.102;19.682;2024-03-07T10:47:22;99613.56;;;10.43;71.06
70930;BME280;58588;48.102;19.682;2024-03-07T10:50:38;99623.63;;;10.03;71.31
70930;BME280;58588;48.102;19.682;2024-03-07T10:53:52;99613.69;;;10.04;71.06
70930;BME280;58588;48.102;19.682;2024-03-07T10:57:06;99620.69;;;10.13;72.56
70930;BME280;58588;48.102;19.682;2024-03-07T11:00:12;99618.19;;;10.34;73.03
70930;BME280;58588;48.102;19.682;2024-03-07T11:03:31;99615.78;;;10.16;73.16
70930;BME280;58588;48.102;19.682;2024-03-07T11:06:35;99613.06;;;9.71;71.67
70930;BME280;58588;48.102;19.682;2024-03-07T11:09:37;99614.66;;;10.11;72.05
70930;BME280;58588;48.102;19.682;2024-03-07T11:12:42;99617.78;;;9.69;73.17
70930;BME280;58588;48.102;19.682;2024-03-07T11:15:47;99619.19;;;9.87;74.70
70930;BME280;58588;48.102;19.682;2024-03-07T11:19:18;99623.53;;;10.19;75.18
70930;BME280;58588;48.102;19.682;2024-03-07T11:22:31;99621.75;;;9.81;76.32
70930;BME280;58588;48.102;19.682;2024-03-07T11:25:34;99606.22;;;10.14;74.53
70930;BME280;58588;48.102;19.682;2024-03-07T11:28:40;99620.28;;;10.24;75.64
70930;BME280;58588;48.102;19.682;2024-03-07T11:31:42;99613.03;;;9.79;74.35
70930;BME280;58588;48.102;19.682;2024-03-07T11:34:45;99616.00;;;10.07;74.03
70930;BME280;58588;48.102;19.682;2024-03-07T11:37:49;99610.97;;;9.81;76.15
70930;BME280;58588;48.102;19.682;2024-03-07T11:40:52;99612.03;;;10.03;74.47
70930;BME280;58588;48.102;19.682;2024-03-07T11:43:57;99615.09;;;9.69;73.74
70930;BME280;58588;48.102;19.682;2024-03-07T11:47:03;99616.50;;;10.10;74.64
70930;BME280;58588;48.102;19.682;2024-03-07T11:50:09;99620.38;;;9.85;76.12
70930;BME280;58588;48.102;19.682;2024-03-07T11:53:13;99611.66;;;9.52;77.10
70930;BME280;58588;48.102;19.682;2024-03-07T11:56:16;99604.50;;;9.67;75.42
70930;BME280;58588;48.102;19.682;2024-03-07T11:59:18;99617.22;;;9.50;76.75
70930;BME280;58588;48.102;19.682;2024-03-07T12:02:20;99615.47;;;9.88;75.89
70930;BME280;58588;48.102;19.682;2024-03-07T12:05:23;99617.91;;;9.75;75.67
70930;BME280;58588;48.102;19.682;2024-03-07T12:08:29;99608.66;;;9.47;78.10
70930;BME280;58588;48.102;19.682;2024-03-07T12:11:32;99606.09;;;9.53;78.42
70930;BME280;58588;48.102;19.682;2024-03-07T12:14:36;99615.94;;;9.69;78.19
70930;BME280;58588;48.102;19.682;2024-03-07T12:17:39;99614.59;;;9.65;79.24
70930;BME280;58588;48.102;19.682;2024-03-07T12:20:44;99627.16;;;9.50;79.30
70930;BME280;58588;48.102;19.682;2024-03-07T12:23:54;99618.88;;;9.20;81.38
70930;BME280;58588;48.102;19.682;2024-03-07T12:27:06;99612.78;;;9.26;80.66
70930;BME280;58588;48.102;19.682;2024-03-07T12:30:15;99622.22;;;9.61;81.54
70930;BME280;58588;48.102;19.682;2024-03-07T12:33:21;99619.00;;;9.58;84.21
70930;BME280;58588;48.102;19.682;2024-03-07T12:36:37;99622.28;;;9.76;83.75
70930;BME280;58588;48.102;19.682;2024-03-07T12:40:10;99620.31;;;9.93;84.16
70930;BME280;58588;48.102;19.682;2024-03-07T12:43:19;99623.88;;;10.16;84.75
70930;BME280;58588;48.102;19.682;2024-03-07T12:46:24;99619.34;;;9.63;81.42
70930;BME280;58588;48.102;19.682;2024-03-07T12:49:28;99626.81;;;9.76;82.72
70930;BME280;58588;48.102;19.682;2024-03-07T12:52:31;99620.84;;;9.88;84.59
70930;BME280;58588;48.102;19.682;2024-03-07T12:55:35;99632.16;;;10.07;81.71
70930;BME280;58588;48.102;19.682;2024-03-07T12:58:42;99628.94;;;10.11;82.12
70930;BME280;58588;48.102;19.682;2024-03-07T13:01:45;99628.59;;;9.91;86.04
70930;BME280;58588;48.102;19.682;2024-03-07T13:04:48;99631.00;;;10.09;84.91
70930;BME280;58588;48.102;19.682;2024-03-07T13:07:51;99634.50;;;9.56;83.62
70930;BME280;58588;48.102;19.682;2024-03-07T13:10:55;99639.56;;;9.82;84.21
70930;BME280;58588;48.102;19.682;2024-03-07T13:13:59;99644.00;;;9.75;83.38
70930;BME280;58588;48.102;19.682;2024-03-07T13:17:01;99633.03;;;9.84;82.09
70930;BME280;58588;48.102;19.682;2024-03-07T13:20:05;99635.84;;;9.60;84.97
70930;BME280;58588;48.102;19.682;2024-03-07T13:23:12;99635.53;;;9.55;86.42
70930;BME280;58588;48.102;19.682;2024-03-07T13:26:17;99639.03;;;9.24;85.37
70930;BME280;58588;48.102;19.682;2024-03-07T13:29:24;99629.88;;;8.94;84.91
70930;BME280;58588;48.102;19.682;2024-03-07T13:32:26;99638.97;;;8.85;87.89
70930;BME280;58588;48.102;19.682;2024-03-07T13:35:29;99637.06;;;9.02;87.36
70930;BME280;58588;48.102;19.682;2024-03-07T13:38:32;99635.97;;;8.72;87.88
70930;BME280;58588;48.102;19.682;2024-03-07T13:41:37;99647.47;;;9.05;86.90
70930;BME280;58588;48.102;19.682;2024-03-07T13:44:40;99637.41;;;9.07;87.10
70930;BME280;58588;48.102;19.682;2024-03-07T13:47:44;99640.63;;;8.94;86.44
70930;BME280;58588;48.102;19.682;2024-03-07T13:50:48;99646.63;;;9.13;86.56
70930;BME280;58588;48.102;19.682;2024-03-07T13:53:52;99655.53;;;9.05;87.98
70930;BME280;58588;48.102;19.682;2024-03-07T13:57:21;99650.50;;;9.10;86.59
70930;BME280;58588;48.102;19.682;2024-03-07T14:00:35;99647.22;;;8.51;88.14
70930;BME280;58588;48.102;19.682;2024-03-07T14:07:33;99661.28;;;9.02;86.85
70930;BME280;58588;48.102;19.682;2024-03-07T14:11:00;99653.28;;;8.61;86.31
70930;BME280;58588;48.102;19.682;2024-03-07T14:14:28;99659.66;;;8.60;87.75
70930;BME280;58588;48.102;19.682;2024-03-07T14:25:09;99670.06;;;8.71;87.23
70930;BME280;58588;48.102;19.682;2024-03-07T14:28:54;99653.69;;;9.05;86.74
70930;BME280;58588;48.102;19.682;2024-03-07T14:32:07;99665.19;;;8.83;87.48
70930;BME280;58588;48.102;19.682;2024-03-07T14:35:17;99667.91;;;8.58;87.10
70930;BME280;58588;48.102;19.682;2024-03-07T14:38:25;99658.16;;;8.66;87.93
70930;BME280;58588;48.102;19.682;2024-03-07T14:41:45;99653.44;;;8.60;87.92
70930;BME280;58588;48.102;19.682;2024-03-07T14:44:51;99662.34;;;8.60;87.97
70930;BME280;58588;48.102;19.682;2024-03-07T14:51:50;99655.47;;;8.49;87.84
70930;BME280;58588;48.102;19.682;2024-03-07T14:54:57;99673.25;;;8.75;88.25
70930;BME280;58588;48.102;19.682;2024-03-07T14:58:00;99670.72;;;8.90;86.84
70930;BME280;58588;48.102;19.682;2024-03-07T15:01:02;99661.97;;;8.30;87.62
70930;BME280;58588;48.102;19.682;2024-03-07T15:04:07;99664.47;;;8.08;86.95
70930;BME280;58588;48.102;19.682;2024-03-07T15:07:13;99662.66;;;8.73;87.01
70930;BME280;58588;48.102;19.682;2024-03-07T15:10:18;99662.50;;;8.67;86.78
70930;BME280;58588;48.102;19.682;2024-03-07T15:13:21;99668.03;;;8.57;87.29
70930;BME280;58588;48.102;19.682;2024-03-07T15:16:24;99659.94;;;8.32;88.15
70930;BME280;58588;48.102;19.682;2024-03-07T15:19:26;99663.50;;;8.57;86.51
70930;BME280;58588;48.102;19.682;2024-03-07T15:22:32;99664.03;;;8.53;88.33
70930;BME280;58588;48.102;19.682;2024-03-07T15:25:34;99661.34;;;8.37;89.54
70930;BME280;58588;48.102;19.682;2024-03-07T15:28:37;99660.81;;;8.57;88.28
70930;BME280;58588;48.102;19.682;2024-03-07T15:31:39;99666.00;;;8.75;87.98
70930;BME280;58588;48.102;19.682;2024-03-07T15:34:41;99661.31;;;8.85;86.73
70930;BME280;58588;48.102;19.682;2024-03-07T15:37:44;99664.69;;;8.63;89.16
70930;BME280;58588;48.102;19.682;2024-03-07T15:40:47;99659.50;;;8.70;88.84
70930;BME280;58588;48.102;19.682;2024-03-07T15:43:50;99665.50;;;8.80;89.38
70930;BME280;58588;48.102;19.682;2024-03-07T15:46:52;99657.28;;;8.73;88.48
70930;BME280;58588;48.102;19.682;2024-03-07T15:49:55;99666.50;;;8.87;89.34
70930;BME280;58588;48.102;19.682;2024-03-07T15:52:58;99667.41;;;8.47;90.35
70930;BME280;58588;48.102;19.682;2024-03-07T15:56:00;99673.78;;;8.54;90.53
70930;BME280;58588;48.102;19.682;2024-03-07T15:59:02;99673.75;;;8.62;89.73
70930;BME280;58588;48.102;19.682;2024-03-07T16:02:05;99666.19;;;8.74;90.40
70930;BME280;58588;48.102;19.682;2024-03-07T16:05:07;99681.97;;;8.69;90.82
70930;BME280;58588;48.102;19.682;2024-03-07T16:08:14;99674.59;;;8.79;90.96
70930;BME280;58588;48.102;19.682;2024-03-07T16:11:18;99679.13;;;8.62;91.67
70930;BME280;58588;48.102;19.682;2024-03-07T16:14:24;99681.66;;;8.72;92.02
70930;BME280;58588;48.102;19.682;2024-03-07T16:17:26;99681.13;;;8.84;90.10
70930;BME280;58588;48.102;19.682;2024-03-07T16:20:29;99677.28;;;8.63;91.62
70930;BME280;58588;48.102;19.682;2024-03-07T16:23:32;99682.34;;;8.66;90.95
70930;BME280;58588;48.102;19.682;2024-03-07T16:26:34;99678.31;;;8.53;89.67
70930;BME280;58588;48.102;19.682;2024-03-07T16:29:36;99693.25;;;8.72;90.91
70930;BME280;58588;48.102;19.682;2024-03-07T16:32:39;99690.72;;;8.71;91.05
70930;BME280;58588;48.102;19.682;2024-03-07T16:35:41;99690.72;;;8.63;92.91